createdAt,value
2017-07-30T00:02:06.911Z,23.80
2017-07-30T00:04:33.374Z,23.80
2017-07-30T00:06:59.850Z,23.70
2017-07-30T00:09:26.346Z,23.80
2017-07-30T00:11:52.846Z,23.80
2017-07-30T00:14:20.321Z,24.00
2017-07-30T00:16:46.929Z,23.90
2017-07-30T00:19:13.529Z,23.90
2017-07-30T00:21:40.045Z,23.90
2017-07-30T00:24:06.544Z,24.00
2017-07-30T00:26:33.057Z,24.10
2017-07-30T00:28:59.509Z,24.10
2017-07-30T00:31:26.017Z,24.20
2017-07-30T00:33:52.496Z,24.10
2017-07-30T00:36:18.985Z,24.00
2017-07-30T00:38:45.504Z,24.10
2017-07-30T00:41:11.970Z,24.10
2017-07-30T00:43:38.440Z,24.10
2017-07-30T00:46:04.931Z,24.20
2017-07-30T00:48:31.409Z,24.20
2017-07-30T00:50:57.868Z,24.10
2017-07-30T00:53:24.342Z,24.20
2017-07-30T00:55:50.804Z,24.10
2017-07-30T00:58:17.327Z,24.10
2017-07-30T01:00:43.789Z,24.20
2017-07-30T01:03:10.433Z,24.20
2017-07-30T01:05:36.913Z,24.30
2017-07-30T01:08:03.293Z,24.30
2017-07-30T01:10:30.496Z,24.40
2017-07-30T01:12:57.071Z,24.00
2017-07-30T01:15:23.546Z,24.40
2017-07-30T01:17:50.049Z,24.20
2017-07-30T01:20:16.634Z,24.30
2017-07-30T01:22:43.172Z,24.40
2017-07-30T01:25:09.709Z,24.40
2017-07-30T01:27:36.943Z,24.30
2017-07-30T01:30:03.405Z,24.30
2017-07-30T01:32:29.881Z,24.50
2017-07-30T01:34:56.341Z,24.40
2017-07-30T01:37:22.909Z,24.50
2017-07-30T01:39:49.400Z,24.30
2017-07-30T01:42:15.901Z,24.30
2017-07-30T01:44:42.416Z,24.40
2017-07-30T01:47:08.954Z,24.40
2017-07-30T01:49:35.438Z,24.50
2017-07-30T01:52:02.702Z,24.60
2017-07-30T01:54:29.190Z,24.50
2017-07-30T01:56:55.695Z,24.60
2017-07-30T01:59:23.342Z,24.40
2017-07-30T02:04:22.858Z,24.30
2017-07-30T02:06:49.100Z,24.20
2017-07-30T02:09:15.374Z,23.90
2017-07-30T02:11:41.635Z,24.20
2017-07-30T02:14:07.931Z,24.20
2017-07-30T02:16:34.233Z,24.30
2017-07-30T02:19:00.515Z,24.30
2017-07-30T02:21:26.802Z,24.30
2017-07-30T02:23:53.078Z,24.30
2017-07-30T02:26:19.368Z,24.30
2017-07-30T02:28:45.625Z,24.30
2017-07-30T02:31:11.919Z,24.20
2017-07-30T02:33:38.955Z,24.00
2017-07-30T02:36:05.958Z,24.10
2017-07-30T02:38:32.250Z,24.10
2017-07-30T02:40:58.523Z,24.20
2017-07-30T02:43:25.761Z,24.10
2017-07-30T02:45:52.739Z,24.20
2017-07-30T02:48:19.004Z,24.20
2017-07-30T02:50:45.278Z,24.00
2017-07-30T02:53:12.563Z,24.00
2017-07-30T02:55:38.842Z,24.10
2017-07-30T02:58:05.110Z,24.20
2017-07-30T03:00:31.392Z,24.20
2017-07-30T03:02:57.666Z,24.20
2017-07-30T03:05:24.154Z,24.10
2017-07-30T03:07:50.678Z,24.00
2017-07-30T03:10:17.155Z,24.10
2017-07-30T03:12:43.639Z,24.20
2017-07-30T03:15:10.153Z,24.20
2017-07-30T03:17:36.622Z,23.90
2017-07-30T03:20:03.065Z,24.10
2017-07-30T03:22:29.521Z,24.20
2017-07-30T03:24:56.001Z,24.10
2017-07-30T03:27:22.517Z,24.10
2017-07-30T03:29:49.038Z,24.00
2017-07-30T03:32:15.539Z,23.80
2017-07-30T03:34:42.069Z,23.70
2017-07-30T03:37:08.573Z,23.60
2017-07-30T03:39:35.821Z,23.50
2017-07-30T03:42:02.349Z,23.50
2017-07-30T03:44:29.054Z,23.30
2017-07-30T03:46:55.535Z,23.30
2017-07-30T03:49:22.056Z,23.30
2017-07-30T03:51:48.660Z,23.30
2017-07-30T03:54:15.218Z,23.10
2017-07-30T03:56:42.438Z,23.10
2017-07-30T03:59:08.977Z,23.10
2017-07-30T04:01:35.489Z,23.30
2017-07-30T04:04:02.006Z,23.40
2017-07-30T04:06:28.518Z,23.30
2017-07-30T04:08:55.048Z,23.40
2017-07-30T04:11:21.526Z,23.30
2017-07-30T04:13:48.075Z,23.30
2017-07-30T04:16:14.579Z,23.20
2017-07-30T04:18:41.086Z,23.30
2017-07-30T04:21:07.610Z,23.30
2017-07-30T04:23:34.134Z,23.40
2017-07-30T04:26:00.642Z,23.40
2017-07-30T04:28:27.123Z,23.20
2017-07-30T04:30:54.370Z,23.30
2017-07-30T04:33:22.266Z,23.40
2017-07-30T04:35:48.808Z,23.40
2017-07-30T04:38:16.033Z,23.40
2017-07-30T04:40:42.562Z,23.40
2017-07-30T04:43:09.065Z,23.40
2017-07-30T04:45:35.577Z,23.50
2017-07-30T04:48:02.079Z,23.40
2017-07-30T04:50:28.572Z,23.30
2017-07-30T04:52:55.089Z,23.40
2017-07-30T04:55:21.562Z,23.50
2017-07-30T04:57:48.163Z,23.50
2017-07-30T05:00:14.657Z,23.50
2017-07-30T05:02:41.161Z,23.60
2017-07-30T05:05:07.649Z,23.50
2017-07-30T05:07:35.125Z,23.60
2017-07-30T05:10:01.612Z,23.60
2017-07-30T05:12:28.857Z,23.70
2017-07-30T05:14:55.368Z,23.70
2017-07-30T05:17:21.913Z,23.70
2017-07-30T05:19:48.661Z,23.80
2017-07-30T05:22:16.940Z,23.80
2017-07-30T05:24:43.489Z,24.20
2017-07-30T05:27:10.721Z,23.80
2017-07-30T05:29:37.181Z,23.80
2017-07-30T05:32:03.657Z,23.80
2017-07-30T05:34:30.157Z,23.70
2017-07-30T05:36:56.618Z,24.00
2017-07-30T05:39:23.914Z,24.90
2017-07-30T05:41:51.049Z,25.30
2017-07-30T05:44:17.560Z,25.30
2017-07-30T05:46:44.511Z,25.30
2017-07-30T05:49:10.978Z,25.00
2017-07-30T05:51:37.486Z,24.90
2017-07-30T05:54:03.993Z,24.80
2017-07-30T05:56:30.506Z,24.70
2017-07-30T05:58:57.735Z,24.60
2017-07-30T06:01:24.666Z,24.60
2017-07-30T06:03:51.173Z,24.30
2017-07-30T06:06:17.675Z,24.20
2017-07-30T06:08:44.109Z,24.40
2017-07-30T06:11:10.605Z,24.40
2017-07-30T06:13:37.078Z,24.70
2017-07-30T06:16:03.569Z,24.80
2017-07-30T06:18:30.090Z,24.80
2017-07-30T06:20:56.566Z,24.90
2017-07-30T06:23:23.033Z,24.70
2017-07-30T06:25:49.546Z,24.90
2017-07-30T06:28:16.079Z,25.10
2017-07-30T06:30:42.544Z,25.10
2017-07-30T06:33:09.021Z,25.10
2017-07-30T06:35:35.496Z,25.10
2017-07-30T06:38:02.022Z,25.00
2017-07-30T06:40:28.937Z,25.50
2017-07-30T06:42:55.421Z,25.50
2017-07-30T06:45:21.922Z,25.50
2017-07-30T06:47:48.453Z,25.50
2017-07-30T06:50:15.709Z,25.50
2017-07-30T06:52:42.197Z,25.50
2017-07-30T06:55:09.449Z,25.50
2017-07-30T06:57:35.885Z,25.50
2017-07-30T07:00:02.403Z,25.50
2017-07-30T07:02:29.437Z,25.50
2017-07-30T07:04:55.968Z,25.50
2017-07-30T07:07:22.454Z,25.50
2017-07-30T07:09:50.151Z,25.30
2017-07-30T07:12:16.671Z,24.90
2017-07-30T07:14:43.198Z,25.50
2017-07-30T07:17:09.664Z,25.50
2017-07-30T07:19:36.232Z,25.50
2017-07-30T07:22:02.763Z,25.60
2017-07-30T07:24:29.258Z,25.40
2017-07-30T07:26:55.769Z,25.50
2017-07-30T07:29:22.256Z,25.40
2017-07-30T07:31:49.530Z,25.20
2017-07-30T07:34:16.014Z,25.20
2017-07-30T07:36:43.247Z,24.90
2017-07-30T07:39:09.753Z,24.90
2017-07-30T07:41:36.250Z,24.90
2017-07-30T07:44:02.780Z,24.80
2017-07-30T07:46:29.421Z,24.80
2017-07-30T07:48:55.934Z,24.80
2017-07-30T07:51:23.278Z,25.00
2017-07-30T07:53:49.798Z,25.00
2017-07-30T07:56:17.305Z,25.10
2017-07-30T07:58:43.852Z,25.10
2017-07-30T08:01:10.359Z,25.00
2017-07-30T08:03:36.892Z,25.10
2017-07-30T08:06:03.513Z,25.20
2017-07-30T08:08:30.130Z,25.30
2017-07-30T08:10:57.040Z,25.50
2017-07-30T08:13:23.572Z,25.80
2017-07-30T08:15:50.093Z,25.70
2017-07-30T08:18:16.652Z,25.70
2017-07-30T08:20:43.169Z,25.70
2017-07-30T08:23:10.376Z,25.60
2017-07-30T08:25:37.635Z,25.70
2017-07-30T08:28:04.538Z,25.60
2017-07-30T08:30:31.049Z,25.70
2017-07-30T08:32:57.579Z,25.70
2017-07-30T08:35:24.122Z,25.50
2017-07-30T08:37:51.353Z,25.40
2017-07-30T08:40:17.833Z,25.40
2017-07-30T08:42:44.283Z,25.50
2017-07-30T08:45:10.777Z,25.60
2017-07-30T08:47:37.380Z,25.60
2017-07-30T08:50:03.933Z,25.80
2017-07-30T08:52:30.470Z,25.90
2017-07-30T08:54:56.973Z,26.00
2017-07-30T08:57:23.485Z,26.00
2017-07-30T08:59:49.976Z,25.90
2017-07-30T09:02:16.516Z,25.90
2017-07-30T09:04:43.038Z,25.80
2017-07-30T09:07:09.547Z,25.90
2017-07-30T09:09:36.043Z,25.90
2017-07-30T09:12:03.172Z,26.10
2017-07-30T09:14:29.674Z,26.20
2017-07-30T09:16:56.173Z,26.30
2017-07-30T09:19:23.448Z,26.50
2017-07-30T09:21:49.975Z,26.40
2017-07-30T09:24:16.474Z,26.50
2017-07-30T09:26:42.996Z,26.60
2017-07-30T09:29:09.574Z,26.80
2017-07-30T09:31:36.062Z,27.00
2017-07-30T09:34:02.600Z,26.90
2017-07-30T09:36:29.078Z,26.90
2017-07-30T09:38:55.637Z,26.80
2017-07-30T09:41:22.208Z,26.90
2017-07-30T09:43:49.443Z,27.40
2017-07-30T09:46:16.016Z,27.30
2017-07-30T09:48:42.545Z,27.30
2017-07-30T09:51:09.018Z,27.30
2017-07-30T09:53:35.610Z,27.20
2017-07-30T09:56:02.093Z,27.20
2017-07-30T09:58:28.639Z,27.30
2017-07-30T10:00:55.134Z,27.80
2017-07-30T10:03:21.775Z,28.00
2017-07-30T10:05:49.081Z,28.30
2017-07-30T10:08:15.561Z,28.30
2017-07-30T10:10:42.318Z,28.50
2017-07-30T10:13:08.986Z,28.70
2017-07-30T10:15:35.854Z,28.70
2017-07-30T10:18:02.377Z,29.00
2017-07-30T10:20:29.425Z,29.00
2017-07-30T10:22:56.673Z,29.00
2017-07-30T10:25:23.210Z,29.00
2017-07-30T10:27:49.689Z,28.60
2017-07-30T10:30:16.230Z,28.40
2017-07-30T10:32:42.719Z,28.10
2017-07-30T10:35:09.202Z,27.80
2017-07-30T10:37:35.693Z,27.70
2017-07-30T10:40:02.198Z,27.50
2017-07-30T10:42:29.167Z,27.20
2017-07-30T10:44:55.670Z,27.10
2017-07-30T10:47:22.185Z,26.90
2017-07-30T10:49:48.716Z,26.80
2017-07-30T10:52:15.231Z,27.00
2017-07-30T10:54:41.706Z,27.30
2017-07-30T10:57:33.432Z,27.40
2017-07-30T11:00:09.804Z,27.70
2017-07-30T11:02:40.501Z,27.60
2017-07-30T11:05:07.068Z,27.60
2017-07-30T11:07:34.438Z,28.10
2017-07-30T11:10:00.993Z,28.10
2017-07-30T11:12:27.473Z,28.20
2017-07-30T11:14:54.525Z,28.10
2017-07-30T11:17:20.891Z,28.00
2017-07-30T11:19:47.136Z,28.20
2017-07-30T11:22:14.234Z,28.50
2017-07-30T11:24:41.307Z,28.50
2017-07-30T11:27:08.314Z,28.10
2017-07-30T11:29:34.677Z,28.10
2017-07-30T11:32:00.927Z,28.00
2017-07-30T11:34:27.184Z,27.90
2017-07-30T11:36:53.552Z,27.90
2017-07-30T11:39:19.844Z,27.70
2017-07-30T11:41:46.201Z,27.80
2017-07-30T11:44:13.238Z,28.20
2017-07-30T11:46:39.527Z,28.20
2017-07-30T11:49:05.789Z,28.20
2017-07-30T11:51:32.140Z,28.30
2017-07-30T11:53:58.474Z,28.50
2017-07-30T11:56:24.784Z,28.70
2017-07-30T11:58:51.046Z,28.70
2017-07-30T12:01:17.367Z,28.70
2017-07-30T12:03:43.786Z,28.60
2017-07-30T12:06:10.203Z,28.60
2017-07-30T12:08:36.506Z,28.80
2017-07-30T12:11:03.038Z,29.00
2017-07-30T12:13:29.688Z,28.70
2017-07-30T12:15:56.157Z,28.60
2017-07-30T12:18:22.682Z,28.50
2017-07-30T12:20:49.327Z,28.40
2017-07-30T12:23:15.895Z,28.50
2017-07-30T12:25:42.410Z,28.40
2017-07-30T12:28:08.904Z,28.20
2017-07-30T12:30:35.434Z,28.00
2017-07-30T12:33:02.051Z,28.10
2017-07-30T12:35:35.657Z,28.10
2017-07-30T12:38:02.079Z,28.10
2017-07-30T12:40:29.386Z,28.20
2017-07-30T12:42:55.937Z,28.20
2017-07-30T12:45:22.453Z,28.10
2017-07-30T12:47:49.721Z,28.10
2017-07-30T12:50:16.319Z,28.00
2017-07-30T12:52:43.596Z,28.00
2017-07-30T12:55:10.074Z,28.00
2017-07-30T12:57:36.582Z,28.00
2017-07-30T13:00:03.885Z,28.10
2017-07-30T13:02:33.285Z,28.10
2017-07-30T13:04:59.852Z,28.30
2017-07-30T13:07:26.431Z,28.30
2017-07-30T13:09:53.061Z,28.20
2017-07-30T13:12:19.610Z,28.20
2017-07-30T13:14:46.833Z,28.40
2017-07-30T13:17:13.364Z,28.40
2017-07-30T13:19:39.899Z,28.60
2017-07-30T13:22:06.505Z,28.60
2017-07-30T13:24:33.028Z,28.60
2017-07-30T13:26:59.561Z,28.60
2017-07-30T13:29:26.113Z,28.60
2017-07-30T13:31:52.649Z,28.70
2017-07-30T13:34:19.147Z,28.70
2017-07-30T13:36:45.635Z,28.80
2017-07-30T13:39:12.149Z,28.70
2017-07-30T13:41:38.737Z,28.40
2017-07-30T13:44:05.288Z,28.30
2017-07-30T13:46:31.763Z,28.30
2017-07-30T13:48:58.245Z,28.40
2017-07-30T13:51:24.804Z,28.20
2017-07-30T13:53:55.821Z,28.00
2017-07-30T13:56:22.274Z,28.00
2017-07-30T13:58:48.891Z,27.80
2017-07-30T14:01:15.427Z,27.90
2017-07-30T14:03:42.663Z,28.40
2017-07-30T14:06:09.893Z,28.50
2017-07-30T14:08:36.384Z,28.50
2017-07-30T14:11:02.898Z,28.50
2017-07-30T14:13:29.346Z,28.50
2017-07-30T14:15:55.854Z,28.70
2017-07-30T14:18:22.329Z,28.80
2017-07-30T14:20:48.849Z,28.80
2017-07-30T14:23:15.318Z,28.80
2017-07-30T14:25:46.745Z,28.80
2017-07-30T14:28:13.250Z,28.60
2017-07-30T14:30:39.750Z,28.20
2017-07-30T14:33:06.250Z,28.60
2017-07-30T14:35:33.446Z,28.50
2017-07-30T14:37:59.938Z,28.50
2017-07-30T14:40:26.616Z,28.20
2017-07-30T14:42:53.122Z,28.10
2017-07-30T14:45:20.401Z,28.00
2017-07-30T14:47:46.873Z,28.00
2017-07-30T14:50:14.121Z,27.70
2017-07-30T14:52:41.378Z,27.60
2017-07-30T14:55:07.899Z,27.60
2017-07-30T14:57:34.479Z,27.50
2017-07-30T15:00:01.003Z,27.20
2017-07-30T15:02:27.511Z,27.20
2017-07-30T15:04:53.990Z,26.70
2017-07-30T15:07:20.531Z,27.10
2017-07-30T15:09:46.786Z,27.00
2017-07-30T15:12:17.915Z,26.90
2017-07-30T15:14:44.393Z,26.80
2017-07-30T15:17:10.662Z,26.80
2017-07-30T15:19:37.659Z,27.20
2017-07-30T15:22:03.975Z,27.10
2017-07-30T15:24:30.264Z,27.30
2017-07-30T15:26:56.552Z,27.50
2017-07-30T15:29:22.956Z,27.50
2017-07-30T15:31:49.532Z,27.60
2017-07-30T15:34:15.831Z,27.50
2017-07-30T15:36:42.124Z,27.60
2017-07-30T15:39:08.424Z,27.60
2017-07-30T15:41:34.724Z,27.40
2017-07-30T15:44:01.057Z,27.40
2017-07-30T15:46:27.419Z,27.50
2017-07-30T15:48:54.056Z,27.60
2017-07-30T15:51:21.478Z,27.60
2017-07-30T15:53:47.910Z,27.20
2017-07-30T15:56:15.779Z,27.20
2017-07-30T15:58:42.086Z,27.40
2017-07-30T16:01:13.458Z,27.30
2017-07-30T16:03:39.747Z,27.30
2017-07-30T16:06:06.045Z,27.20
2017-07-30T16:08:32.324Z,27.20
2017-07-30T16:10:58.614Z,27.10
2017-07-30T16:13:24.919Z,27.10
2017-07-30T16:18:22.834Z,27.00
2017-07-30T16:20:49.168Z,27.00
2017-07-30T16:23:16.189Z,26.80
2017-07-30T16:25:42.476Z,26.80
2017-07-30T16:28:08.777Z,26.70
2017-07-30T16:30:39.894Z,26.50
2017-07-30T16:33:06.210Z,26.40
2017-07-30T16:35:32.542Z,26.40
2017-07-30T16:37:58.853Z,26.40
2017-07-30T16:40:25.142Z,26.50
2017-07-30T16:42:52.725Z,26.50
2017-07-30T16:45:19.029Z,26.10
2017-07-30T16:47:49.558Z,26.00
2017-07-30T16:50:15.823Z,26.00
2017-07-30T16:52:46.251Z,25.90
2017-07-30T16:55:12.545Z,25.90
2017-07-30T16:57:38.829Z,25.60
2017-07-30T17:00:05.135Z,25.50
2017-07-30T17:02:31.423Z,25.50
2017-07-30T17:04:57.783Z,25.30
2017-07-30T17:07:24.115Z,25.50
2017-07-30T17:09:52.706Z,25.60
2017-07-30T17:12:19.285Z,25.50
2017-07-30T17:14:48.608Z,25.60
2017-07-30T17:17:15.013Z,25.40
2017-07-30T17:19:41.363Z,25.30
2017-07-30T17:22:07.887Z,25.30
2017-07-30T17:24:39.755Z,25.10
2017-07-30T17:27:06.983Z,25.00
2017-07-30T17:29:33.488Z,25.00
2017-07-30T17:32:00.051Z,25.10
2017-07-30T17:34:26.586Z,25.30
2017-07-30T17:36:53.170Z,25.20
2017-07-30T17:39:19.799Z,25.10
2017-07-30T17:41:46.309Z,25.00
2017-07-30T17:44:12.833Z,25.00
2017-07-30T17:46:39.501Z,25.10
2017-07-30T17:49:06.017Z,25.30
2017-07-30T17:51:32.521Z,25.30
2017-07-30T17:53:59.025Z,25.20
2017-07-30T17:56:25.515Z,25.30
2017-07-30T17:58:52.002Z,25.20
2017-07-30T18:01:18.548Z,24.90
2017-07-30T18:03:44.967Z,24.90
2017-07-30T18:06:11.554Z,24.80
2017-07-30T18:08:38.067Z,24.30
2017-07-30T18:11:04.698Z,24.20
2017-07-30T18:13:31.223Z,24.10
2017-07-30T18:15:57.709Z,24.10
2017-07-30T18:18:24.284Z,24.10
2017-07-30T18:20:58.036Z,24.10
2017-07-30T18:23:25.599Z,24.00
2017-07-30T18:25:52.200Z,23.90
2017-07-30T18:28:18.761Z,23.80
2017-07-30T18:30:45.191Z,23.70
2017-07-30T18:33:11.735Z,23.80
2017-07-30T18:35:38.230Z,23.90
2017-07-30T18:38:04.763Z,23.90
2017-07-30T18:40:31.378Z,23.70
2017-07-30T18:42:57.957Z,23.60
2017-07-30T18:45:24.499Z,23.60
2017-07-30T18:47:51.374Z,23.40
2017-07-30T18:50:17.884Z,23.40
2017-07-30T18:52:44.431Z,23.30
2017-07-30T18:55:11.453Z,23.40
2017-07-30T18:57:37.994Z,23.50
2017-07-30T19:00:04.523Z,23.70
2017-07-30T19:02:31.086Z,23.50
2017-07-30T19:04:58.436Z,23.50
2017-07-30T19:07:24.997Z,23.50
2017-07-30T19:09:51.841Z,23.40
2017-07-30T19:12:18.345Z,23.40
2017-07-30T19:14:44.924Z,23.40
2017-07-30T19:17:11.633Z,23.20
2017-07-30T19:19:38.218Z,23.10
2017-07-30T19:22:04.734Z,23.10
2017-07-30T19:24:31.378Z,23.10
2017-07-30T19:26:58.039Z,23.00
2017-07-30T19:29:24.690Z,23.00
2017-07-30T19:31:51.133Z,22.70
2017-07-30T19:34:17.788Z,22.70
2017-07-30T19:36:45.656Z,22.60
2017-07-30T19:39:12.915Z,22.70
2017-07-30T19:41:39.516Z,22.70
2017-07-30T19:44:06.198Z,22.70
2017-07-30T19:46:32.883Z,22.90
2017-07-30T19:48:59.713Z,22.90
2017-07-30T19:51:26.309Z,22.90
2017-07-30T19:53:53.642Z,22.80
2017-07-30T19:56:21.307Z,22.80
2017-07-30T19:58:47.967Z,22.70
2017-07-30T20:01:14.651Z,22.80
2017-07-30T20:03:41.070Z,22.90
2017-07-30T20:06:07.573Z,22.90
2017-07-30T20:08:34.257Z,22.90
2017-07-30T20:11:00.991Z,22.80
2017-07-30T20:13:27.612Z,22.80
2017-07-30T20:15:54.432Z,22.80
2017-07-30T20:18:21.105Z,22.80
2017-07-30T20:20:47.798Z,22.80
2017-07-30T20:23:14.293Z,22.70
2017-07-30T20:25:40.870Z,22.70
2017-07-30T20:28:08.047Z,22.70
2017-07-30T20:30:34.638Z,22.60
2017-07-30T20:33:01.302Z,22.50
2017-07-30T20:35:27.955Z,22.40
2017-07-30T20:37:54.619Z,22.40
2017-07-30T20:40:21.281Z,22.40
2017-07-30T20:42:48.008Z,22.40
2017-07-30T20:45:14.514Z,22.10
2017-07-30T20:47:41.255Z,22.40
2017-07-30T20:50:08.840Z,22.30
2017-07-30T20:52:35.409Z,22.20
2017-07-30T20:55:02.629Z,22.10
2017-07-30T20:57:29.468Z,22.10
2017-07-30T20:59:56.192Z,22.00
2017-07-30T21:02:22.709Z,21.90
2017-07-30T21:04:49.778Z,21.80
2017-07-30T21:07:17.377Z,21.90
2017-07-30T21:09:44.049Z,21.90
2017-07-30T21:12:11.310Z,21.70
2017-07-30T21:14:37.866Z,21.70
2017-07-30T21:17:04.789Z,21.70
2017-07-30T21:19:31.410Z,21.60
2017-07-30T21:21:57.970Z,21.70
2017-07-30T21:24:24.573Z,21.30
2017-07-30T21:26:51.285Z,21.50
2017-07-30T21:29:18.636Z,21.50
2017-07-30T21:31:45.526Z,21.50
2017-07-30T21:34:12.191Z,20.90
2017-07-30T21:36:38.897Z,21.00
2017-07-30T21:39:05.381Z,21.20
2017-07-30T21:41:31.935Z,21.30
2017-07-30T21:43:58.734Z,21.00
2017-07-30T21:46:25.559Z,20.90
2017-07-30T21:48:52.092Z,21.30
2017-07-30T21:51:18.650Z,21.30
2017-07-30T21:53:45.178Z,21.40
2017-07-30T21:56:12.430Z,21.30
2017-07-30T21:58:38.968Z,21.30
2017-07-30T22:01:05.563Z,21.30
2017-07-30T22:03:32.942Z,21.40
2017-07-30T22:05:59.906Z,21.40
2017-07-30T22:08:26.463Z,21.30
2017-07-30T22:10:54.008Z,21.30
2017-07-30T22:13:21.554Z,21.30
2017-07-30T22:15:48.867Z,21.30
2017-07-30T22:18:15.915Z,21.40
2017-07-30T22:20:42.489Z,21.40
2017-07-30T22:23:09.010Z,21.00
2017-07-30T22:25:35.533Z,21.10
2017-07-30T22:28:02.089Z,21.20
2017-07-30T22:30:33.097Z,21.20
2017-07-30T22:32:59.766Z,21.20
2017-07-30T22:35:26.336Z,21.20
2017-07-30T22:37:52.901Z,21.20
2017-07-30T22:40:19.515Z,20.80
2017-07-30T22:42:46.217Z,20.50
2017-07-30T22:45:12.820Z,20.80
2017-07-30T22:47:46.043Z,20.90
2017-07-30T22:50:12.653Z,21.00
2017-07-30T22:52:39.304Z,21.00
2017-07-30T22:55:05.841Z,21.10
2017-07-30T22:57:32.501Z,21.00
2017-07-30T22:59:59.029Z,20.70
2017-07-30T23:02:25.498Z,20.90
2017-07-30T23:04:51.991Z,21.00
2017-07-30T23:07:18.534Z,21.00
2017-07-30T23:09:45.068Z,21.00
2017-07-30T23:12:11.593Z,20.50
2017-07-30T23:14:38.116Z,20.80
2017-07-30T23:17:05.297Z,21.00
2017-07-30T23:19:31.832Z,21.00
2017-07-30T23:21:58.261Z,21.00
2017-07-30T23:24:24.702Z,21.00
2017-07-30T23:26:51.126Z,21.00
2017-07-30T23:29:18.358Z,20.70
2017-07-30T23:31:44.839Z,20.70
2017-07-30T23:34:11.312Z,20.80
2017-07-30T23:36:37.789Z,20.80
2017-07-30T23:39:04.329Z,20.80
2017-07-30T23:41:30.865Z,20.70
2017-07-30T23:43:58.134Z,20.70
2017-07-30T23:46:24.793Z,20.70
2017-07-30T23:48:51.265Z,20.70
2017-07-30T23:51:18.499Z,20.70
2017-07-30T23:53:45.010Z,20.80
2017-07-30T23:56:12.305Z,20.80
2017-07-30T23:58:38.826Z,20.80
